sensor_id;sensor_type;location;lat;lon;timestamp;temperature;humidity
65291;SHT30;51893;59.754;10.110;2023-08-30T00:02:21;14.02;83.27
65291;SHT30;51893;59.754;10.110;2023-08-30T00:04:50;14.07;83.08
65291;SHT30;51893;59.754;10.110;2023-08-30T00:07:18;14.11;82.94
65291;SHT30;51893;59.754;10.110;2023-08-30T00:09:45;14.19;82.71
65291;SHT30;51893;59.754;10.110;2023-08-30T00:12:13;14.24;82.55
65291;SHT30;51893;59.754;10.110;2023-08-30T00:14:41;14.31;82.35
65291;SHT30;51893;59.754;10.110;2023-08-30T00:17:09;14.37;82.13
65291;SHT30;51893;59.754;10.110;2023-08-30T00:19:37;14.48;81.66
65291;SHT30;51893;59.754;10.110;2023-08-30T00:22:05;14.44;81.51
65291;SHT30;51893;59.754;10.110;2023-08-30T00:24:36;14.42;81.71
65291;SHT30;51893;59.754;10.110;2023-08-30T00:27:04;14.38;81.53
65291;SHT30;51893;59.754;10.110;2023-08-30T00:29:32;14.28;81.61
65291;SHT30;51893;59.754;10.110;2023-08-30T00:32:00;14.27;81.60
65291;SHT30;51893;59.754;10.110;2023-08-30T00:34:28;14.38;81.28
65291;SHT30;51893;59.754;10.110;2023-08-30T00:36:56;14.27;81.01
65291;SHT30;51893;59.754;10.110;2023-08-30T00:39:24;14.11;81.39
65291;SHT30;51893;59.754;10.110;2023-08-30T00:41:52;14.07;81.49
65291;SHT30;51893;59.754;10.110;2023-08-30T00:44:20;14.06;81.38
65291;SHT30;51893;59.754;10.110;2023-08-30T00:46:48;14.06;81.32
65291;SHT30;51893;59.754;10.110;2023-08-30T00:49:16;14.00;81.38
65291;SHT30;51893;59.754;10.110;2023-08-30T00:51:45;13.92;81.68
65291;SHT30;51893;59.754;10.110;2023-08-30T00:54:13;13.93;81.63
65291;SHT30;51893;59.754;10.110;2023-08-30T00:56:43;13.94;81.43
65291;SHT30;51893;59.754;10.110;2023-08-30T00:59:12;13.98;81.30
65291;SHT30;51893;59.754;10.110;2023-08-30T01:01:41;13.88;81.45
65291;SHT30;51893;59.754;10.110;2023-08-30T01:04:09;13.75;82.03
65291;SHT30;51893;59.754;10.110;2023-08-30T01:06:37;13.68;82.13
65291;SHT30;51893;59.754;10.110;2023-08-30T01:09:05;13.63;82.03
65291;SHT30;51893;59.754;10.110;2023-08-30T01:15:06;13.55;82.12
65291;SHT30;51893;59.754;10.110;2023-08-30T01:17:42;13.51;82.22
65291;SHT30;51893;59.754;10.110;2023-08-30T01:20:11;13.57;82.05
65291;SHT30;51893;59.754;10.110;2023-08-30T01:23:10;13.55;81.70
65291;SHT30;51893;59.754;10.110;2023-08-30T01:26:41;13.58;81.36
65291;SHT30;51893;59.754;10.110;2023-08-30T01:28:58;13.60;81.40
65291;SHT30;51893;59.754;10.110;2023-08-30T01:31:31;13.56;81.35
65291;SHT30;51893;59.754;10.110;2023-08-30T01:34:01;13.52;81.35
65291;SHT30;51893;59.754;10.110;2023-08-30T01:36:31;13.49;81.35
65291;SHT30;51893;59.754;10.110;2023-08-30T01:39:00;13.37;81.81
65291;SHT30;51893;59.754;10.110;2023-08-30T01:41:29;13.34;82.55
65291;SHT30;51893;59.754;10.110;2023-08-30T01:44:00;13.39;82.73
65291;SHT30;51893;59.754;10.110;2023-08-30T01:46:32;13.36;82.22
65291;SHT30;51893;59.754;10.110;2023-08-30T01:49:01;13.29;82.20
65291;SHT30;51893;59.754;10.110;2023-08-30T01:51:32;13.20;82.30
65291;SHT30;51893;59.754;10.110;2023-08-30T01:54:03;13.10;82.54
65291;SHT30;51893;59.754;10.110;2023-08-30T01:56:33;13.06;82.76
65291;SHT30;51893;59.754;10.110;2023-08-30T01:59:01;13.12;82.67
65291;SHT30;51893;59.754;10.110;2023-08-30T02:01:29;13.13;82.50
65291;SHT30;51893;59.754;10.110;2023-08-30T02:03:58;13.12;82.39
65291;SHT30;51893;59.754;10.110;2023-08-30T02:07:13;13.13;82.37
65291;SHT30;51893;59.754;10.110;2023-08-30T02:09:39;13.00;82.36
65291;SHT30;51893;59.754;10.110;2023-08-30T02:12:28;12.97;82.37
65291;SHT30;51893;59.754;10.110;2023-08-30T02:15:13;12.96;82.06
65291;SHT30;51893;59.754;10.110;2023-08-30T02:17:43;12.90;82.06
65291;SHT30;51893;59.754;10.110;2023-08-30T02:20:13;12.86;82.60
65291;SHT30;51893;59.754;10.110;2023-08-30T02:22:44;12.82;82.89
65291;SHT30;51893;59.754;10.110;2023-08-30T02:25:12;12.83;82.72
65291;SHT30;51893;59.754;10.110;2023-08-30T02:27:40;12.83;82.62
65291;SHT30;51893;59.754;10.110;2023-08-30T02:30:08;12.72;82.58
65291;SHT30;51893;59.754;10.110;2023-08-30T02:32:37;12.69;82.53
65291;SHT30;51893;59.754;10.110;2023-08-30T02:35:05;12.60;82.74
65291;SHT30;51893;59.754;10.110;2023-08-30T02:37:33;12.59;83.00
65291;SHT30;51893;59.754;10.110;2023-08-30T02:40:01;12.67;82.98
65291;SHT30;51893;59.754;10.110;2023-08-30T02:42:30;12.69;82.48
65291;SHT30;51893;59.754;10.110;2023-08-30T02:44:58;12.65;82.28
65291;SHT30;51893;59.754;10.110;2023-08-30T02:47:26;12.57;82.96
65291;SHT30;51893;59.754;10.110;2023-08-30T02:49:54;12.52;83.51
65291;SHT30;51893;59.754;10.110;2023-08-30T02:52:21;12.43;84.22
65291;SHT30;51893;59.754;10.110;2023-08-30T02:54:49;12.38;84.77
65291;SHT30;51893;59.754;10.110;2023-08-30T02:57:17;12.40;84.64
65291;SHT30;51893;59.754;10.110;2023-08-30T02:59:45;12.38;84.56
65291;SHT30;51893;59.754;10.110;2023-08-30T03:02:13;12.39;84.68
65291;SHT30;51893;59.754;10.110;2023-08-30T03:04:42;12.41;84.42
65291;SHT30;51893;59.754;10.110;2023-08-30T03:07:10;12.43;84.08
65291;SHT30;51893;59.754;10.110;2023-08-30T03:09:37;12.43;83.95
65291;SHT30;51893;59.754;10.110;2023-08-30T03:12:07;12.40;83.91
65291;SHT30;51893;59.754;10.110;2023-08-30T03:14:35;12.34;83.97
65291;SHT30;51893;59.754;10.110;2023-08-30T03:17:04;12.38;84.01
65291;SHT30;51893;59.754;10.110;2023-08-30T03:19:31;12.40;83.78
65291;SHT30;51893;59.754;10.110;2023-08-30T03:21:59;12.37;83.53
65291;SHT30;51893;59.754;10.110;2023-08-30T03:24:27;12.32;83.50
65291;SHT30;51893;59.754;10.110;2023-08-30T03:26:56;12.38;83.55
65291;SHT30;51893;59.754;10.110;2023-08-30T03:29:23;12.37;83.11
65291;SHT30;51893;59.754;10.110;2023-08-30T03:31:51;12.35;82.82
65291;SHT30;51893;59.754;10.110;2023-08-30T03:34:19;12.35;82.63
65291;SHT30;51893;59.754;10.110;2023-08-30T03:36:47;12.36;82.36
65291;SHT30;51893;59.754;10.110;2023-08-30T03:39:21;12.34;82.33
65291;SHT30;51893;59.754;10.110;2023-08-30T03:41:50;12.32;82.35
65291;SHT30;51893;59.754;10.110;2023-08-30T03:44:18;12.22;82.40
65291;SHT30;51893;59.754;10.110;2023-08-30T03:46:46;12.24;82.58
65291;SHT30;51893;59.754;10.110;2023-08-30T03:49:15;12.24;82.67
65291;SHT30;51893;59.754;10.110;2023-08-30T03:51:42;12.20;82.83
65291;SHT30;51893;59.754;10.110;2023-08-30T03:54:10;12.19;82.93
65291;SHT30;51893;59.754;10.110;2023-08-30T03:56:44;12.14;82.62
65291;SHT30;51893;59.754;10.110;2023-08-30T03:59:12;12.10;82.82
65291;SHT30;51893;59.754;10.110;2023-08-30T04:01:40;12.08;82.73
65291;SHT30;51893;59.754;10.110;2023-08-30T04:04:08;11.99;83.35
65291;SHT30;51893;59.754;10.110;2023-08-30T04:06:35;11.92;83.88
65291;SHT30;51893;59.754;10.110;2023-08-30T04:09:03;11.90;84.36
65291;SHT30;51893;59.754;10.110;2023-08-30T04:11:32;11.85;84.86
65291;SHT30;51893;59.754;10.110;2023-08-30T04:14:00;11.79;85.38
65291;SHT30;51893;59.754;10.110;2023-08-30T04:16:29;11.77;85.72
65291;SHT30;51893;59.754;10.110;2023-08-30T04:18:57;11.83;85.63
65291;SHT30;51893;59.754;10.110;2023-08-30T04:21:25;11.84;85.37
65291;SHT30;51893;59.754;10.110;2023-08-30T04:23:53;11.80;85.35
65291;SHT30;51893;59.754;10.110;2023-08-30T04:26:21;11.80;85.34
65291;SHT30;51893;59.754;10.110;2023-08-30T04:28:49;11.84;85.31
65291;SHT30;51893;59.754;10.110;2023-08-30T04:31:17;11.94;85.16
65291;SHT30;51893;59.754;10.110;2023-08-30T04:33:45;12.00;85.07
65291;SHT30;51893;59.754;10.110;2023-08-30T04:36:15;12.06;85.00
65291;SHT30;51893;59.754;10.110;2023-08-30T04:38:44;12.09;85.16
65291;SHT30;51893;59.754;10.110;2023-08-30T04:41:28;12.11;85.32
65291;SHT30;51893;59.754;10.110;2023-08-30T04:43:56;12.07;85.54
65291;SHT30;51893;59.754;10.110;2023-08-30T04:46:24;12.11;85.66
65291;SHT30;51893;59.754;10.110;2023-08-30T04:48:52;12.15;85.78
65291;SHT30;51893;59.754;10.110;2023-08-30T04:51:20;12.18;85.75
65291;SHT30;51893;59.754;10.110;2023-08-30T04:53:48;12.23;85.69
65291;SHT30;51893;59.754;10.110;2023-08-30T04:56:16;12.28;85.58
65291;SHT30;51893;59.754;10.110;2023-08-30T04:58:46;12.30;85.67
65291;SHT30;51893;59.754;10.110;2023-08-30T05:01:14;12.35;85.55
65291;SHT30;51893;59.754;10.110;2023-08-30T05:03:42;12.35;85.42
65291;SHT30;51893;59.754;10.110;2023-08-30T05:06:11;12.38;85.32
65291;SHT30;51893;59.754;10.110;2023-08-30T05:08:41;12.41;85.21
65291;SHT30;51893;59.754;10.110;2023-08-30T05:11:10;12.47;85.18
65291;SHT30;51893;59.754;10.110;2023-08-30T05:13:38;12.53;85.09
65291;SHT30;51893;59.754;10.110;2023-08-30T05:16:06;12.59;84.97
65291;SHT30;51893;59.754;10.110;2023-08-30T05:18:34;12.64;84.81
65291;SHT30;51893;59.754;10.110;2023-08-30T05:21:02;12.70;84.72
65291;SHT30;51893;59.754;10.110;2023-08-30T05:23:31;12.76;84.60
65291;SHT30;51893;59.754;10.110;2023-08-30T05:25:59;12.80;84.47
65291;SHT30;51893;59.754;10.110;2023-08-30T05:28:28;12.82;84.40
65291;SHT30;51893;59.754;10.110;2023-08-30T05:30:56;12.85;84.40
65291;SHT30;51893;59.754;10.110;2023-08-30T05:33:24;12.90;84.42
65291;SHT30;51893;59.754;10.110;2023-08-30T05:35:54;12.93;84.40
65291;SHT30;51893;59.754;10.110;2023-08-30T05:38:22;12.91;84.54
65291;SHT30;51893;59.754;10.110;2023-08-30T05:40:50;12.97;84.49
65291;SHT30;51893;59.754;10.110;2023-08-30T05:43:18;12.95;84.39
65291;SHT30;51893;59.754;10.110;2023-08-30T05:45:46;12.94;84.35
65291;SHT30;51893;59.754;10.110;2023-08-30T05:48:15;13.02;84.27
65291;SHT30;51893;59.754;10.110;2023-08-30T05:50:43;13.01;84.41
65291;SHT30;51893;59.754;10.110;2023-08-30T05:53:12;13.03;84.41
65291;SHT30;51893;59.754;10.110;2023-08-30T05:55:40;13.04;84.42
65291;SHT30;51893;59.754;10.110;2023-08-30T05:58:08;13.07;84.54
65291;SHT30;51893;59.754;10.110;2023-08-30T06:00:37;13.08;84.53
65291;SHT30;51893;59.754;10.110;2023-08-30T06:03:05;13.09;84.61
65291;SHT30;51893;59.754;10.110;2023-08-30T06:05:33;13.16;84.61
65291;SHT30;51893;59.754;10.110;2023-08-30T06:08:02;13.23;84.60
65291;SHT30;51893;59.754;10.110;2023-08-30T06:10:30;13.29;84.67
65291;SHT30;51893;59.754;10.110;2023-08-30T06:12:58;13.34;84.65
65291;SHT30;51893;59.754;10.110;2023-08-30T06:15:26;13.43;84.54
65291;SHT30;51893;59.754;10.110;2023-08-30T06:17:54;13.47;84.39
65291;SHT30;51893;59.754;10.110;2023-08-30T06:20:22;13.48;84.51
65291;SHT30;51893;59.754;10.110;2023-08-30T06:22:50;13.54;84.60
65291;SHT30;51893;59.754;10.110;2023-08-30T06:25:18;13.56;84.51
65291;SHT30;51893;59.754;10.110;2023-08-30T06:27:56;13.62;84.44
65291;SHT30;51893;59.754;10.110;2023-08-30T06:30:27;13.67;84.30
65291;SHT30;51893;59.754;10.110;2023-08-30T06:32:57;13.71;84.37
65291;SHT30;51893;59.754;10.110;2023-08-30T06:35:25;13.78;84.28
65291;SHT30;51893;59.754;10.110;2023-08-30T06:37:53;13.83;84.04
65291;SHT30;51893;59.754;10.110;2023-08-30T06:40:21;13.84;83.97
65291;SHT30;51893;59.754;10.110;2023-08-30T06:42:49;13.85;83.98
65291;SHT30;51893;59.754;10.110;2023-08-30T06:45:17;13.87;83.90
65291;SHT30;51893;59.754;10.110;2023-08-30T06:47:45;13.88;83.80
65291;SHT30;51893;59.754;10.110;2023-08-30T06:50:13;13.90;83.87
65291;SHT30;51893;59.754;10.110;2023-08-30T06:52:41;13.88;83.93
65291;SHT30;51893;59.754;10.110;2023-08-30T06:55:09;13.85;84.02
65291;SHT30;51893;59.754;10.110;2023-08-30T06:57:37;13.88;84.20
65291;SHT30;51893;59.754;10.110;2023-08-30T07:00:06;13.92;84.11
65291;SHT30;51893;59.754;10.110;2023-08-30T07:02:36;13.95;84.14
65291;SHT30;51893;59.754;10.110;2023-08-30T07:05:05;14.00;84.05
65291;SHT30;51893;59.754;10.110;2023-08-30T07:07:34;14.02;84.00
65291;SHT30;51893;59.754;10.110;2023-08-30T07:10:02;14.03;84.11
65291;SHT30;51893;59.754;10.110;2023-08-30T07:12:30;14.02;84.14
65291;SHT30;51893;59.754;10.110;2023-08-30T07:14:58;14.01;84.16
65291;SHT30;51893;59.754;10.110;2023-08-30T07:17:26;14.02;84.18
65291;SHT30;51893;59.754;10.110;2023-08-30T07:20:13;14.07;84.12
65291;SHT30;51893;59.754;10.110;2023-08-30T07:22:41;14.11;83.93
65291;SHT30;51893;59.754;10.110;2023-08-30T07:25:09;14.21;83.84
65291;SHT30;51893;59.754;10.110;2023-08-30T07:27:38;14.27;83.69
65291;SHT30;51893;59.754;10.110;2023-08-30T07:30:06;14.31;83.56
65291;SHT30;51893;59.754;10.110;2023-08-30T07:32:34;14.37;83.38
65291;SHT30;51893;59.754;10.110;2023-08-30T07:35:04;14.39;83.33
65291;SHT30;51893;59.754;10.110;2023-08-30T07:37:33;14.42;83.24
65291;SHT30;51893;59.754;10.110;2023-08-30T07:40:02;14.45;83.07
65291;SHT30;51893;59.754;10.110;2023-08-30T07:42:33;14.47;82.90
65291;SHT30;51893;59.754;10.110;2023-08-30T07:45:01;14.50;82.74
65291;SHT30;51893;59.754;10.110;2023-08-30T07:47:32;14.54;82.67
65291;SHT30;51893;59.754;10.110;2023-08-30T07:50:00;14.54;82.72
65291;SHT30;51893;59.754;10.110;2023-08-30T07:52:28;14.61;82.68
65291;SHT30;51893;59.754;10.110;2023-08-30T07:55:12;14.72;82.55
65291;SHT30;51893;59.754;10.110;2023-08-30T07:57:41;14.83;82.43
65291;SHT30;51893;59.754;10.110;2023-08-30T08:00:09;14.89;82.10
65291;SHT30;51893;59.754;10.110;2023-08-30T08:02:39;14.99;81.98
65291;SHT30;51893;59.754;10.110;2023-08-30T08:05:08;15.03;81.84
65291;SHT30;51893;59.754;10.110;2023-08-30T08:07:38;15.03;81.62
65291;SHT30;51893;59.754;10.110;2023-08-30T08:10:07;15.06;81.62
65291;SHT30;51893;59.754;10.110;2023-08-30T08:12:37;15.17;81.63
65291;SHT30;51893;59.754;10.110;2023-08-30T08:15:05;15.28;81.44
65291;SHT30;51893;59.754;10.110;2023-08-30T08:17:34;15.37;81.17
65291;SHT30;51893;59.754;10.110;2023-08-30T08:20:03;15.47;81.22
65291;SHT30;51893;59.754;10.110;2023-08-30T08:22:34;15.56;80.68
65291;SHT30;51893;59.754;10.110;2023-08-30T08:25:02;15.60;80.14
65291;SHT30;51893;59.754;10.110;2023-08-30T08:27:30;15.67;80.04
65291;SHT30;51893;59.754;10.110;2023-08-30T08:29:58;15.73;79.87
65291;SHT30;51893;59.754;10.110;2023-08-30T08:32:26;15.86;80.03
65291;SHT30;51893;59.754;10.110;2023-08-30T08:34:54;15.92;79.31
65291;SHT30;51893;59.754;10.110;2023-08-30T08:37:22;15.91;78.74
65291;SHT30;51893;59.754;10.110;2023-08-30T08:39:50;15.90;78.32
65291;SHT30;51893;59.754;10.110;2023-08-30T08:42:19;15.89;78.03
65291;SHT30;51893;59.754;10.110;2023-08-30T08:44:50;15.88;77.88
65291;SHT30;51893;59.754;10.110;2023-08-30T08:47:20;15.94;77.96
65291;SHT30;51893;59.754;10.110;2023-08-30T08:49:48;16.03;77.90
65291;SHT30;51893;59.754;10.110;2023-08-30T08:52:18;16.13;77.91
65291;SHT30;51893;59.754;10.110;2023-08-30T08:54:59;16.22;77.60
65291;SHT30;51893;59.754;10.110;2023-08-30T08:57:28;16.24;77.28
65291;SHT30;51893;59.754;10.110;2023-08-30T08:59:59;16.32;77.54
65291;SHT30;51893;59.754;10.110;2023-08-30T09:02:28;16.46;77.38
65291;SHT30;51893;59.754;10.110;2023-08-30T09:04:57;16.60;77.47
65291;SHT30;51893;59.754;10.110;2023-08-30T09:07:27;16.73;77.01
65291;SHT30;51893;59.754;10.110;2023-08-30T09:09:58;16.84;76.76
65291;SHT30;51893;59.754;10.110;2023-08-30T09:12:26;16.92;76.15
65291;SHT30;51893;59.754;10.110;2023-08-30T09:14:55;16.85;75.52
65291;SHT30;51893;59.754;10.110;2023-08-30T09:17:34;16.98;76.51
65291;SHT30;51893;59.754;10.110;2023-08-30T09:20:08;17.10;75.92
65291;SHT30;51893;59.754;10.110;2023-08-30T09:22:44;17.10;75.58
65291;SHT30;51893;59.754;10.110;2023-08-30T09:25:23;17.19;75.96
65291;SHT30;51893;59.754;10.110;2023-08-30T09:27:57;17.31;76.07
65291;SHT30;51893;59.754;10.110;2023-08-30T09:30:27;17.38;75.63
65291;SHT30;51893;59.754;10.110;2023-08-30T09:33:03;17.30;74.77
65291;SHT30;51893;59.754;10.110;2023-08-30T09:35:32;17.20;75.13
65291;SHT30;51893;59.754;10.110;2023-08-30T09:38:00;17.16;75.50
65291;SHT30;51893;59.754;10.110;2023-08-30T09:40:27;17.08;75.44
65291;SHT30;51893;59.754;10.110;2023-08-30T09:42:57;16.95;75.22
65291;SHT30;51893;59.754;10.110;2023-08-30T09:45:40;16.90;75.35
65291;SHT30;51893;59.754;10.110;2023-08-30T09:48:09;16.93;75.44
65291;SHT30;51893;59.754;10.110;2023-08-30T09:50:37;16.98;75.64
65291;SHT30;51893;59.754;10.110;2023-08-30T09:53:09;17.07;75.61
65291;SHT30;51893;59.754;10.110;2023-08-30T09:55:41;17.09;75.38
65291;SHT30;51893;59.754;10.110;2023-08-30T09:58:12;17.14;75.31
65291;SHT30;51893;59.754;10.110;2023-08-30T10:00:46;17.11;75.11
65291;SHT30;51893;59.754;10.110;2023-08-30T10:03:16;17.11;75.38
65291;SHT30;51893;59.754;10.110;2023-08-30T10:05:58;17.13;75.29
65291;SHT30;51893;59.754;10.110;2023-08-30T10:08:28;17.15;75.10
65291;SHT30;51893;59.754;10.110;2023-08-30T10:10:59;17.17;75.34
65291;SHT30;51893;59.754;10.110;2023-08-30T10:13:27;17.24;75.51
65291;SHT30;51893;59.754;10.110;2023-08-30T10:15:58;17.24;75.09
65291;SHT30;51893;59.754;10.110;2023-08-30T10:18:33;17.28;75.25
65291;SHT30;51893;59.754;10.110;2023-08-30T10:21:10;17.34;75.16
65291;SHT30;51893;59.754;10.110;2023-08-30T10:23:40;17.40;75.00
65291;SHT30;51893;59.754;10.110;2023-08-30T10:26:10;17.39;74.38
65291;SHT30;51893;59.754;10.110;2023-08-30T10:28:37;17.36;74.46
65291;SHT30;51893;59.754;10.110;2023-08-30T10:31:08;17.36;74.60
65291;SHT30;51893;59.754;10.110;2023-08-30T10:33:46;17.35;74.46
65291;SHT30;51893;59.754;10.110;2023-08-30T10:36:23;17.41;74.48
65291;SHT30;51893;59.754;10.110;2023-08-30T10:38:53;17.44;74.15
65291;SHT30;51893;59.754;10.110;2023-08-30T10:41:25;17.48;74.22
65291;SHT30;51893;59.754;10.110;2023-08-30T10:43:57;17.56;74.23
65291;SHT30;51893;59.754;10.110;2023-08-30T10:46:29;17.60;73.89
65291;SHT30;51893;59.754;10.110;2023-08-30T10:49:10;17.67;74.21
65291;SHT30;51893;59.754;10.110;2023-08-30T10:51:43;17.73;74.01
65291;SHT30;51893;59.754;10.110;2023-08-30T10:54:13;17.76;73.73
65291;SHT30;51893;59.754;10.110;2023-08-30T10:59:18;17.77;72.92
65291;SHT30;51893;59.754;10.110;2023-08-30T11:01:48;17.79;73.41
65291;SHT30;51893;59.754;10.110;2023-08-30T11:04:19;17.79;73.09
65291;SHT30;51893;59.754;10.110;2023-08-30T11:06:50;17.80;73.05
65291;SHT30;51893;59.754;10.110;2023-08-30T11:09:23;17.81;73.00
65291;SHT30;51893;59.754;10.110;2023-08-30T11:11:52;17.80;72.62
65291;SHT30;51893;59.754;10.110;2023-08-30T11:14:20;17.81;72.74
65291;SHT30;51893;59.754;10.110;2023-08-30T11:16:48;17.92;72.79
65291;SHT30;51893;59.754;10.110;2023-08-30T11:19:16;18.05;72.71
65291;SHT30;51893;59.754;10.110;2023-08-30T11:21:44;18.24;72.58
65291;SHT30;51893;59.754;10.110;2023-08-30T11:24:13;18.44;72.37
65291;SHT30;51893;59.754;10.110;2023-08-30T11:26:42;18.65;72.06
65291;SHT30;51893;59.754;10.110;2023-08-30T11:29:10;18.74;71.11
65291;SHT30;51893;59.754;10.110;2023-08-30T11:31:38;18.72;70.74
65291;SHT30;51893;59.754;10.110;2023-08-30T11:34:06;18.69;71.01
65291;SHT30;51893;59.754;10.110;2023-08-30T11:36:35;18.70;71.14
65291;SHT30;51893;59.754;10.110;2023-08-30T11:39:04;18.72;71.30
65291;SHT30;51893;59.754;10.110;2023-08-30T11:41:32;18.74;71.06
65291;SHT30;51893;59.754;10.110;2023-08-30T11:44:00;18.73;70.88
65291;SHT30;51893;59.754;10.110;2023-08-30T11:46:29;18.70;70.71
65291;SHT30;51893;59.754;10.110;2023-08-30T11:48:58;18.66;70.44
65291;SHT30;51893;59.754;10.110;2023-08-30T11:51:26;18.61;70.76
65291;SHT30;51893;59.754;10.110;2023-08-30T11:53:55;18.57;71.02
65291;SHT30;51893;59.754;10.110;2023-08-30T11:56:24;18.52;71.11
65291;SHT30;51893;59.754;10.110;2023-08-30T11:58:53;18.47;70.75
65291;SHT30;51893;59.754;10.110;2023-08-30T12:01:21;18.43;70.84
65291;SHT30;51893;59.754;10.110;2023-08-30T12:03:49;18.38;70.87
65291;SHT30;51893;59.754;10.110;2023-08-30T12:06:22;18.35;70.56
65291;SHT30;51893;59.754;10.110;2023-08-30T12:08:57;18.32;70.12
65291;SHT30;51893;59.754;10.110;2023-08-30T12:11:26;18.27;69.88
65291;SHT30;51893;59.754;10.110;2023-08-30T12:14:01;18.22;69.73
65291;SHT30;51893;59.754;10.110;2023-08-30T12:16:30;18.18;70.10
65291;SHT30;51893;59.754;10.110;2023-08-30T12:19:08;18.13;70.21
65291;SHT30;51893;59.754;10.110;2023-08-30T12:21:42;18.12;71.19
65291;SHT30;51893;59.754;10.110;2023-08-30T12:24:10;18.14;71.11
65291;SHT30;51893;59.754;10.110;2023-08-30T12:26:38;18.16;71.77
65291;SHT30;51893;59.754;10.110;2023-08-30T12:29:06;18.18;72.22
65291;SHT30;51893;59.754;10.110;2023-08-30T12:31:34;18.19;72.08
65291;SHT30;51893;59.754;10.110;2023-08-30T12:34:03;18.17;71.67
65291;SHT30;51893;59.754;10.110;2023-08-30T12:36:31;18.19;72.07
65291;SHT30;51893;59.754;10.110;2023-08-30T12:38:59;18.13;71.89
65291;SHT30;51893;59.754;10.110;2023-08-30T12:41:27;18.04;71.50
65291;SHT30;51893;59.754;10.110;2023-08-30T12:43:55;17.94;70.42
65291;SHT30;51893;59.754;10.110;2023-08-30T12:46:23;17.86;70.53
65291;SHT30;51893;59.754;10.110;2023-08-30T12:48:51;17.84;71.19
65291;SHT30;51893;59.754;10.110;2023-08-30T12:51:19;17.89;71.92
65291;SHT30;51893;59.754;10.110;2023-08-30T12:53:46;17.96;72.03
65291;SHT30;51893;59.754;10.110;2023-08-30T12:56:14;18.02;71.72
65291;SHT30;51893;59.754;10.110;2023-08-30T12:58:42;18.05;71.20
65291;SHT30;51893;59.754;10.110;2023-08-30T13:01:10;17.99;71.32
65291;SHT30;51893;59.754;10.110;2023-08-30T13:03:40;17.93;72.29
65291;SHT30;51893;59.754;10.110;2023-08-30T13:06:08;17.90;72.74
65291;SHT30;51893;59.754;10.110;2023-08-30T13:08:36;17.88;72.83
65291;SHT30;51893;59.754;10.110;2023-08-30T13:11:04;17.89;72.96
65291;SHT30;51893;59.754;10.110;2023-08-30T13:13:32;17.91;73.18
65291;SHT30;51893;59.754;10.110;2023-08-30T13:16:00;17.89;73.32
65291;SHT30;51893;59.754;10.110;2023-08-30T13:18:29;17.89;73.64
65291;SHT30;51893;59.754;10.110;2023-08-30T13:20:57;17.92;73.82
65291;SHT30;51893;59.754;10.110;2023-08-30T13:23:25;17.95;74.17
65291;SHT30;51893;59.754;10.110;2023-08-30T13:25:53;17.98;74.58
65291;SHT30;51893;59.754;10.110;2023-08-30T13:28:20;17.93;74.46
65291;SHT30;51893;59.754;10.110;2023-08-30T13:30:49;17.89;74.57
65291;SHT30;51893;59.754;10.110;2023-08-30T13:33:19;17.95;74.82
65291;SHT30;51893;59.754;10.110;2023-08-30T13:35:50;17.96;74.74
65291;SHT30;51893;59.754;10.110;2023-08-30T13:38:21;17.99;74.95
65291;SHT30;51893;59.754;10.110;2023-08-30T13:40:50;18.10;75.72
65291;SHT30;51893;59.754;10.110;2023-08-30T13:43:18;18.20;75.66
65291;SHT30;51893;59.754;10.110;2023-08-30T13:45:47;18.30;75.58
65291;SHT30;51893;59.754;10.110;2023-08-30T13:48:24;18.42;75.05
65291;SHT30;51893;59.754;10.110;2023-08-30T13:50:52;18.49;74.74
65291;SHT30;51893;59.754;10.110;2023-08-30T13:53:20;18.52;74.17
65291;SHT30;51893;59.754;10.110;2023-08-30T13:55:48;18.51;74.10
65291;SHT30;51893;59.754;10.110;2023-08-30T13:58:16;18.53;74.67
65291;SHT30;51893;59.754;10.110;2023-08-30T14:00:44;18.59;74.52
65291;SHT30;51893;59.754;10.110;2023-08-30T14:03:13;18.64;73.75
65291;SHT30;51893;59.754;10.110;2023-08-30T14:05:43;18.61;72.76
65291;SHT30;51893;59.754;10.110;2023-08-30T14:08:11;18.63;72.33
65291;SHT30;51893;59.754;10.110;2023-08-30T14:10:41;18.56;71.51
65291;SHT30;51893;59.754;10.110;2023-08-30T14:13:09;18.44;72.06
65291;SHT30;51893;59.754;10.110;2023-08-30T14:15:38;18.45;72.29
65291;SHT30;51893;59.754;10.110;2023-08-30T14:18:06;18.51;71.70
65291;SHT30;51893;59.754;10.110;2023-08-30T14:20:35;18.47;71.09
65291;SHT30;51893;59.754;10.110;2023-08-30T14:23:03;18.48;71.84
65291;SHT30;51893;59.754;10.110;2023-08-30T14:25:31;18.64;72.19
65291;SHT30;51893;59.754;10.110;2023-08-30T14:28:00;18.86;72.52
65291;SHT30;51893;59.754;10.110;2023-08-30T14:30:30;19.07;71.98
65291;SHT30;51893;59.754;10.110;2023-08-30T14:32:58;19.19;71.16
65291;SHT30;51893;59.754;10.110;2023-08-30T14:35:27;19.27;70.25
65291;SHT30;51893;59.754;10.110;2023-08-30T14:37:57;19.30;69.81
65291;SHT30;51893;59.754;10.110;2023-08-30T14:40:25;19.28;69.32
65291;SHT30;51893;59.754;10.110;2023-08-30T14:42:53;19.29;69.15
65291;SHT30;51893;59.754;10.110;2023-08-30T14:45:21;19.30;68.76
65291;SHT30;51893;59.754;10.110;2023-08-30T14:47:49;19.29;68.20
65291;SHT30;51893;59.754;10.110;2023-08-30T14:50:17;19.30;67.65
65291;SHT30;51893;59.754;10.110;2023-08-30T14:52:45;19.32;67.05
65291;SHT30;51893;59.754;10.110;2023-08-30T14:55:13;19.35;67.36
65291;SHT30;51893;59.754;10.110;2023-08-30T14:57:41;19.39;67.70
65291;SHT30;51893;59.754;10.110;2023-08-30T15:00:10;19.37;66.87
65291;SHT30;51893;59.754;10.110;2023-08-30T15:02:39;19.41;67.58
65291;SHT30;51893;59.754;10.110;2023-08-30T15:05:07;19.47;67.41
65291;SHT30;51893;59.754;10.110;2023-08-30T15:07:36;19.51;67.16
65291;SHT30;51893;59.754;10.110;2023-08-30T15:10:04;19.50;66.93
65291;SHT30;51893;59.754;10.110;2023-08-30T15:12:33;19.51;66.77
65291;SHT30;51893;59.754;10.110;2023-08-30T15:15:01;19.57;66.54
65291;SHT30;51893;59.754;10.110;2023-08-30T15:17:29;19.60;65.98
65291;SHT30;51893;59.754;10.110;2023-08-30T15:19:57;19.65;66.21
65291;SHT30;51893;59.754;10.110;2023-08-30T15:22:26;19.65;66.06
65291;SHT30;51893;59.754;10.110;2023-08-30T15:24:54;19.59;66.63
65291;SHT30;51893;59.754;10.110;2023-08-30T15:27:23;19.53;66.81
65291;SHT30;51893;59.754;10.110;2023-08-30T15:29:50;19.45;66.66
65291;SHT30;51893;59.754;10.110;2023-08-30T15:32:22;19.44;66.32
65291;SHT30;51893;59.754;10.110;2023-08-30T15:34:50;19.45;65.78
65291;SHT30;51893;59.754;10.110;2023-08-30T15:37:18;19.46;65.91